sensor_id;sensor_type;location;lat;lon;timestamp;pressure;altitude;pressure_sealevel;temperature;humidity
65190;BME280;51777;53.570;9.984;2023-04-19T00:00:37;102925.00;;;7.07;100.00
65190;BME280;51777;53.570;9.984;2023-04-19T00:03:04;102914.31;;;6.98;100.00
65190;BME280;51777;53.570;9.984;2023-04-19T00:05:30;102916.66;;;7.02;100.00
65190;BME280;51777;53.570;9.984;2023-04-19T00:07:56;102916.16;;;6.94;100.00
65190;BME280;51777;53.570;9.984;2023-04-19T00:10:21;102903.28;;;6.94;100.00
65190;BME280;51777;53.570;9.984;2023-04-19T00:12:47;102899.50;;;6.84;100.00
65190;BME280;51777;53.570;9.984;2023-04-19T00:15:12;102898.44;;;6.88;100.00
65190;BME280;51777;53.570;9.984;2023-04-19T00:17:38;102898.72;;;6.82;100.00
65190;BME280;51777;53.570;9.984;2023-04-19T00:20:04;102901.34;;;6.81;100.00
65190;BME280;51777;53.570;9.984;2023-04-19T00:22:30;102891.88;;;6.81;100.00
65190;BME280;51777;53.570;9.984;2023-04-19T00:24:55;102890.09;;;6.83;100.00
65190;BME280;51777;53.570;9.984;2023-04-19T00:27:21;102898.00;;;6.78;100.00
65190;BME280;51777;53.570;9.984;2023-04-19T00:29:46;102890.34;;;6.77;100.00
65190;BME280;51777;53.570;9.984;2023-04-19T00:32:11;102894.66;;;6.76;100.00
65190;BME280;51777;53.570;9.984;2023-04-19T00:34:37;102886.41;;;6.70;100.00
65190;BME280;51777;53.570;9.984;2023-04-19T00:37:02;102888.84;;;6.73;100.00
65190;BME280;51777;53.570;9.984;2023-04-19T00:39:30;102889.22;;;6.64;100.00
65190;BME280;51777;53.570;9.984;2023-04-19T00:41:56;102891.03;;;6.62;100.00
65190;BME280;51777;53.570;9.984;2023-04-19T00:44:22;102886.03;;;6.59;100.00
65190;BME280;51777;53.570;9.984;2023-04-19T00:46:48;102881.84;;;6.56;100.00
65190;BME280;51777;53.570;9.984;2023-04-19T00:49:14;102885.25;;;6.57;100.00
65190;BME280;51777;53.570;9.984;2023-04-19T00:51:39;102881.59;;;6.62;100.00
65190;BME280;51777;53.570;9.984;2023-04-19T00:54:05;102884.47;;;6.55;100.00
65190;BME280;51777;53.570;9.984;2023-04-19T00:56:33;102887.72;;;6.60;100.00
65190;BME280;51777;53.570;9.984;2023-04-19T00:58:58;102882.97;;;6.51;100.00
65190;BME280;51777;53.570;9.984;2023-04-19T01:01:24;102876.16;;;6.50;100.00
65190;BME280;51777;53.570;9.984;2023-04-19T01:03:49;102882.75;;;6.55;100.00
65190;BME280;51777;53.570;9.984;2023-04-19T01:06:15;102881.81;;;6.58;100.00
65190;BME280;51777;53.570;9.984;2023-04-19T01:08:40;102887.88;;;6.55;100.00
65190;BME280;51777;53.570;9.984;2023-04-19T01:11:06;102883.72;;;6.53;100.00
65190;BME280;51777;53.570;9.984;2023-04-19T01:13:32;102887.06;;;6.55;100.00
65190;BME280;51777;53.570;9.984;2023-04-19T01:15:58;102885.53;;;6.51;100.00
65190;BME280;51777;53.570;9.984;2023-04-19T01:18:23;102889.06;;;6.48;100.00
65190;BME280;51777;53.570;9.984;2023-04-19T01:20:50;102873.91;;;6.42;100.00
65190;BME280;51777;53.570;9.984;2023-04-19T01:23:17;102885.00;;;6.42;100.00
65190;BME280;51777;53.570;9.984;2023-04-19T01:25:42;102880.59;;;6.46;100.00
65190;BME280;51777;53.570;9.984;2023-04-19T01:28:08;102881.53;;;6.43;100.00
65190;BME280;51777;53.570;9.984;2023-04-19T01:30:34;102882.38;;;6.44;100.00
65190;BME280;51777;53.570;9.984;2023-04-19T01:33:00;102886.56;;;6.46;100.00
65190;BME280;51777;53.570;9.984;2023-04-19T01:35:25;102891.88;;;6.42;100.00
65190;BME280;51777;53.570;9.984;2023-04-19T01:37:51;102882.44;;;6.42;100.00
65190;BME280;51777;53.570;9.984;2023-04-19T01:40:20;102881.69;;;6.40;100.00
65190;BME280;51777;53.570;9.984;2023-04-19T01:42:46;102892.22;;;6.34;100.00
65190;BME280;51777;53.570;9.984;2023-04-19T01:45:11;102887.09;;;6.34;100.00
65190;BME280;51777;53.570;9.984;2023-04-19T01:47:36;102881.13;;;6.34;100.00
65190;BME280;51777;53.570;9.984;2023-04-19T01:50:02;102890.28;;;6.39;100.00
65190;BME280;51777;53.570;9.984;2023-04-19T01:52:27;102875.91;;;6.35;100.00
65190;BME280;51777;53.570;9.984;2023-04-19T01:54:52;102875.97;;;6.34;100.00
65190;BME280;51777;53.570;9.984;2023-04-19T01:57:18;102874.88;;;6.39;100.00
65190;BME280;51777;53.570;9.984;2023-04-19T01:59:43;102868.06;;;6.38;100.00
65190;BME280;51777;53.570;9.984;2023-04-19T02:02:09;102866.34;;;6.39;100.00
65190;BME280;51777;53.570;9.984;2023-04-19T02:04:34;102867.31;;;6.36;100.00
65190;BME280;51777;53.570;9.984;2023-04-19T02:07:00;102853.75;;;6.33;100.00
65190;BME280;51777;53.570;9.984;2023-04-19T02:09:25;102858.94;;;6.31;100.00
65190;BME280;51777;53.570;9.984;2023-04-19T02:11:50;102858.75;;;6.36;100.00
65190;BME280;51777;53.570;9.984;2023-04-19T02:14:16;102863.97;;;6.34;100.00
65190;BME280;51777;53.570;9.984;2023-04-19T02:16:42;102860.50;;;6.35;100.00
65190;BME280;51777;53.570;9.984;2023-04-19T02:19:07;102869.03;;;6.36;100.00
65190;BME280;51777;53.570;9.984;2023-04-19T02:21:33;102866.78;;;6.28;100.00
65190;BME280;51777;53.570;9.984;2023-04-19T02:23:58;102868.59;;;6.26;100.00
65190;BME280;51777;53.570;9.984;2023-04-19T02:26:24;102864.44;;;6.24;100.00
65190;BME280;51777;53.570;9.984;2023-04-19T02:28:50;102861.78;;;6.25;100.00
65190;BME280;51777;53.570;9.984;2023-04-19T02:31:16;102862.94;;;6.18;100.00
65190;BME280;51777;53.570;9.984;2023-04-19T02:33:42;102865.41;;;6.21;100.00
65190;BME280;51777;53.570;9.984;2023-04-19T02:36:08;102861.09;;;6.22;100.00
65190;BME280;51777;53.570;9.984;2023-04-19T02:38:33;102862.03;;;6.19;100.00
65190;BME280;51777;53.570;9.984;2023-04-19T02:40:58;102870.56;;;6.19;100.00
65190;BME280;51777;53.570;9.984;2023-04-19T02:43:25;102866.28;;;6.20;100.00
65190;BME280;51777;53.570;9.984;2023-04-19T02:45:52;102861.13;;;6.20;100.00
65190;BME280;51777;53.570;9.984;2023-04-19T02:48:17;102867.00;;;6.24;100.00
65190;BME280;51777;53.570;9.984;2023-04-19T02:50:43;102862.69;;;6.24;100.00
65190;BME280;51777;53.570;9.984;2023-04-19T02:53:08;102859.28;;;6.24;100.00
65190;BME280;51777;53.570;9.984;2023-04-19T02:55:35;102865.50;;;6.18;100.00
65190;BME280;51777;53.570;9.984;2023-04-19T02:58:00;102856.41;;;6.11;100.00
65190;BME280;51777;53.570;9.984;2023-04-19T03:00:26;102853.75;;;6.12;100.00
65190;BME280;51777;53.570;9.984;2023-04-19T03:02:51;102857.88;;;6.16;100.00
65190;BME280;51777;53.570;9.984;2023-04-19T03:05:16;102853.50;;;6.18;100.00
65190;BME280;51777;53.570;9.984;2023-04-19T03:07:42;102850.94;;;6.18;100.00
65190;BME280;51777;53.570;9.984;2023-04-19T03:10:08;102851.91;;;6.16;100.00
65190;BME280;51777;53.570;9.984;2023-04-19T03:12:33;102847.13;;;6.07;100.00
65190;BME280;51777;53.570;9.984;2023-04-19T03:14:58;102852.47;;;6.02;100.00
65190;BME280;51777;53.570;9.984;2023-04-19T03:17:24;102845.69;;;6.01;100.00
65190;BME280;51777;53.570;9.984;2023-04-19T03:19:49;102853.31;;;6.03;100.00
65190;BME280;51777;53.570;9.984;2023-04-19T03:22:15;102846.44;;;6.03;100.00
65190;BME280;51777;53.570;9.984;2023-04-19T03:24:40;102843.94;;;6.02;100.00
65190;BME280;51777;53.570;9.984;2023-04-19T03:27:06;102840.69;;;5.98;100.00
65190;BME280;51777;53.570;9.984;2023-04-19T03:29:31;102840.00;;;5.93;100.00
65190;BME280;51777;53.570;9.984;2023-04-19T03:31:56;102845.31;;;5.88;100.00
65190;BME280;51777;53.570;9.984;2023-04-19T03:34:22;102835.94;;;5.87;100.00
65190;BME280;51777;53.570;9.984;2023-04-19T03:36:47;102830.94;;;5.84;100.00
65190;BME280;51777;53.570;9.984;2023-04-19T03:39:12;102831.13;;;5.80;100.00
65190;BME280;51777;53.570;9.984;2023-04-19T03:41:39;102837.09;;;5.80;100.00
65190;BME280;51777;53.570;9.984;2023-04-19T03:44:04;102827.91;;;5.75;100.00
65190;BME280;51777;53.570;9.984;2023-04-19T03:46:30;102832.38;;;5.70;100.00
65190;BME280;51777;53.570;9.984;2023-04-19T03:48:58;102829.88;;;5.68;100.00
65190;BME280;51777;53.570;9.984;2023-04-19T03:51:23;102828.28;;;5.66;100.00
65190;BME280;51777;53.570;9.984;2023-04-19T03:53:49;102822.44;;;5.62;100.00
65190;BME280;51777;53.570;9.984;2023-04-19T03:56:14;102829.31;;;5.62;100.00
65190;BME280;51777;53.570;9.984;2023-04-19T03:58:40;102825.03;;;5.62;100.00
65190;BME280;51777;53.570;9.984;2023-04-19T04:01:05;102831.06;;;5.61;100.00
65190;BME280;51777;53.570;9.984;2023-04-19T04:03:32;102823.34;;;5.61;100.00
65190;BME280;51777;53.570;9.984;2023-04-19T04:05:58;102826.69;;;5.63;100.00
65190;BME280;51777;53.570;9.984;2023-04-19T04:08:23;102825.72;;;5.66;100.00
65190;BME280;51777;53.570;9.984;2023-04-19T04:10:49;102818.03;;;5.66;100.00
65190;BME280;51777;53.570;9.984;2023-04-19T04:13:14;102827.31;;;5.68;100.00
65190;BME280;51777;53.570;9.984;2023-04-19T04:15:39;102818.78;;;5.68;100.00
65190;BME280;51777;53.570;9.984;2023-04-19T04:18:05;102818.09;;;5.64;100.00
65190;BME280;51777;53.570;9.984;2023-04-19T04:20:30;102809.56;;;5.64;100.00
65190;BME280;51777;53.570;9.984;2023-04-19T04:22:55;102812.19;;;5.62;100.00
65190;BME280;51777;53.570;9.984;2023-04-19T04:25:21;102814.69;;;5.64;100.00
65190;BME280;51777;53.570;9.984;2023-04-19T04:27:49;102813.66;;;5.68;100.00
65190;BME280;51777;53.570;9.984;2023-04-19T04:30:15;102816.06;;;5.72;100.00
65190;BME280;51777;53.570;9.984;2023-04-19T04:32:41;102815.91;;;5.75;100.00
65190;BME280;51777;53.570;9.984;2023-04-19T04:35:08;102814.06;;;5.79;100.00
65190;BME280;51777;53.570;9.984;2023-04-19T04:37:34;102818.88;;;5.86;100.00
65190;BME280;51777;53.570;9.984;2023-04-19T04:40:01;102822.03;;;5.93;100.00
65190;BME280;51777;53.570;9.984;2023-04-19T04:42:26;102824.31;;;6.01;100.00
65190;BME280;51777;53.570;9.984;2023-04-19T04:44:52;102815.56;;;6.05;100.00
65190;BME280;51777;53.570;9.984;2023-04-19T04:47:22;102830.72;;;6.11;100.00
65190;BME280;51777;53.570;9.984;2023-04-19T04:49:47;102832.25;;;6.15;100.00
65190;BME280;51777;53.570;9.984;2023-04-19T04:52:13;102826.88;;;6.21;100.00
65190;BME280;51777;53.570;9.984;2023-04-19T04:54:38;102820.63;;;6.27;100.00
65190;BME280;51777;53.570;9.984;2023-04-19T04:57:03;102825.38;;;6.36;100.00
65190;BME280;51777;53.570;9.984;2023-04-19T04:59:29;102823.22;;;6.45;100.00
65190;BME280;51777;53.570;9.984;2023-04-19T05:01:54;102828.84;;;6.54;100.00
65190;BME280;51777;53.570;9.984;2023-04-19T05:04:21;102827.47;;;7.03;100.00
65190;BME280;51777;53.570;9.984;2023-04-19T05:06:46;102828.78;;;7.12;100.00
65190;BME280;51777;53.570;9.984;2023-04-19T05:09:12;102823.53;;;6.96;100.00
65190;BME280;51777;53.570;9.984;2023-04-19T05:11:37;102836.72;;;6.88;100.00
65190;BME280;51777;53.570;9.984;2023-04-19T05:14:03;102818.72;;;6.88;100.00
65190;BME280;51777;53.570;9.984;2023-04-19T05:16:28;102823.38;;;6.80;100.00
65190;BME280;51777;53.570;9.984;2023-04-19T05:18:54;102822.28;;;6.86;100.00
65190;BME280;51777;53.570;9.984;2023-04-19T05:21:20;102817.97;;;6.86;100.00
65190;BME280;51777;53.570;9.984;2023-04-19T05:23:45;102819.47;;;6.90;100.00
65190;BME280;51777;53.570;9.984;2023-04-19T05:26:11;102820.13;;;6.95;100.00
65190;BME280;51777;53.570;9.984;2023-04-19T05:28:39;102824.06;;;7.02;100.00
65190;BME280;51777;53.570;9.984;2023-04-19T05:31:04;102828.38;;;7.02;100.00
65190;BME280;51777;53.570;9.984;2023-04-19T05:33:30;102825.88;;;7.00;100.00
65190;BME280;51777;53.570;9.984;2023-04-19T05:35:55;102825.31;;;7.13;100.00
65190;BME280;51777;53.570;9.984;2023-04-19T05:38:20;102814.59;;;7.22;100.00
65190;BME280;51777;53.570;9.984;2023-04-19T05:40:46;102807.47;;;7.27;100.00
65190;BME280;51777;53.570;9.984;2023-04-19T05:43:11;102811.72;;;7.28;100.00
65190;BME280;51777;53.570;9.984;2023-04-19T05:45:36;102816.69;;;7.31;100.00
65190;BME280;51777;53.570;9.984;2023-04-19T05:48:02;102812.47;;;7.30;100.00
65190;BME280;51777;53.570;9.984;2023-04-19T05:50:27;102812.59;;;7.46;100.00
65190;BME280;51777;53.570;9.984;2023-04-19T05:52:53;102814.78;;;7.53;100.00
65190;BME280;51777;53.570;9.984;2023-04-19T05:55:19;102812.59;;;7.63;100.00
65190;BME280;51777;53.570;9.984;2023-04-19T05:57:44;102809.72;;;7.69;100.00
65190;BME280;51777;53.570;9.984;2023-04-19T06:00:10;102817.22;;;7.74;100.00
65190;BME280;51777;53.570;9.984;2023-04-19T06:02:35;102816.47;;;7.72;100.00
65190;BME280;51777;53.570;9.984;2023-04-19T06:05:01;102814.78;;;7.88;100.00
65190;BME280;51777;53.570;9.984;2023-04-19T06:07:29;102818.78;;;7.93;100.00
65190;BME280;51777;53.570;9.984;2023-04-19T06:09:55;102814.91;;;8.02;100.00
65190;BME280;51777;53.570;9.984;2023-04-19T06:12:20;102819.16;;;8.03;100.00
65190;BME280;51777;53.570;9.984;2023-04-19T06:14:46;102814.53;;;8.10;100.00
65190;BME280;51777;53.570;9.984;2023-04-19T06:17:11;102811.72;;;8.14;100.00
65190;BME280;51777;53.570;9.984;2023-04-19T06:19:37;102807.00;;;8.22;100.00
65190;BME280;51777;53.570;9.984;2023-04-19T06:22:03;102810.78;;;8.15;100.00
65190;BME280;51777;53.570;9.984;2023-04-19T06:24:28;102806.91;;;8.24;100.00
65190;BME280;51777;53.570;9.984;2023-04-19T06:26:54;102805.63;;;8.33;100.00
65190;BME280;51777;53.570;9.984;2023-04-19T06:29:19;102805.75;;;8.47;100.00
65190;BME280;51777;53.570;9.984;2023-04-19T06:31:46;102808.00;;;8.53;100.00
65190;BME280;51777;53.570;9.984;2023-04-19T06:34:11;102803.53;;;8.57;100.00
65190;BME280;51777;53.570;9.984;2023-04-19T06:36:37;102807.16;;;8.52;100.00
65190;BME280;51777;53.570;9.984;2023-04-19T06:39:02;102802.75;;;8.39;100.00
65190;BME280;51777;53.570;9.984;2023-04-19T06:41:28;102801.25;;;8.35;100.00
65190;BME280;51777;53.570;9.984;2023-04-19T06:43:53;102803.84;;;8.50;100.00
65190;BME280;51777;53.570;9.984;2023-04-19T06:46:19;102806.03;;;8.58;100.00
65190;BME280;51777;53.570;9.984;2023-04-19T06:48:44;102801.69;;;8.59;100.00
65190;BME280;51777;53.570;9.984;2023-04-19T06:51:09;102798.19;;;8.75;100.00
65190;BME280;51777;53.570;9.984;2023-04-19T06:53:35;102797.72;;;8.85;100.00
65190;BME280;51777;53.570;9.984;2023-04-19T06:56:02;102803.78;;;8.83;100.00
65190;BME280;51777;53.570;9.984;2023-04-19T06:58:29;102806.75;;;8.92;100.00
65190;BME280;51777;53.570;9.984;2023-04-19T07:00:56;102804.13;;;8.93;100.00
65190;BME280;51777;53.570;9.984;2023-04-19T07:03:21;102801.09;;;9.01;100.00
65190;BME280;51777;53.570;9.984;2023-04-19T07:05:47;102793.94;;;9.22;100.00
65190;BME280;51777;53.570;9.984;2023-04-19T07:08:14;102796.06;;;9.29;100.00
65190;BME280;51777;53.570;9.984;2023-04-19T07:10:40;102788.53;;;9.40;100.00
65190;BME280;51777;53.570;9.984;2023-04-19T07:13:09;102782.31;;;9.45;100.00
65190;BME280;51777;53.570;9.984;2023-04-19T07:15:34;102795.22;;;9.45;100.00
65190;BME280;51777;53.570;9.984;2023-04-19T07:18:00;102793.84;;;9.53;100.00
65190;BME280;51777;53.570;9.984;2023-04-19T07:20:25;102785.22;;;9.68;100.00
65190;BME280;51777;53.570;9.984;2023-04-19T07:22:50;102795.84;;;9.78;100.00
65190;BME280;51777;53.570;9.984;2023-04-19T07:25:16;102790.13;;;9.87;100.00
65190;BME280;51777;53.570;9.984;2023-04-19T07:27:41;102782.22;;;10.05;100.00
65190;BME280;51777;53.570;9.984;2023-04-19T07:30:07;102783.69;;;10.09;100.00
65190;BME280;51777;53.570;9.984;2023-04-19T07:32:32;102785.25;;;9.97;100.00
65190;BME280;51777;53.570;9.984;2023-04-19T07:34:58;102774.91;;;10.11;100.00
65190;BME280;51777;53.570;9.984;2023-04-19T07:37:23;102780.47;;;10.19;100.00
65190;BME280;51777;53.570;9.984;2023-04-19T07:39:48;102775.19;;;10.49;100.00
65190;BME280;51777;53.570;9.984;2023-04-19T07:42:14;102779.72;;;10.60;100.00
65190;BME280;51777;53.570;9.984;2023-04-19T07:44:39;102780.41;;;10.76;100.00
65190;BME280;51777;53.570;9.984;2023-04-19T07:47:04;102779.47;;;10.92;100.00
65190;BME280;51777;53.570;9.984;2023-04-19T07:49:30;102771.44;;;11.09;100.00
65190;BME280;51777;53.570;9.984;2023-04-19T07:51:59;102779.00;;;11.12;100.00
65190;BME280;51777;53.570;9.984;2023-04-19T07:54:25;102780.69;;;11.26;100.00
65190;BME280;51777;53.570;9.984;2023-04-19T07:56:51;102778.91;;;11.13;100.00
65190;BME280;51777;53.570;9.984;2023-04-19T07:59:17;102770.22;;;11.27;100.00
65190;BME280;51777;53.570;9.984;2023-04-19T08:01:43;102769.03;;;11.45;100.00
65190;BME280;51777;53.570;9.984;2023-04-19T08:04:08;102782.22;;;11.55;100.00
65190;BME280;51777;53.570;9.984;2023-04-19T08:06:36;102781.59;;;11.64;100.00
65190;BME280;51777;53.570;9.984;2023-04-19T08:09:02;102783.66;;;11.46;100.00
65190;BME280;51777;53.570;9.984;2023-04-19T08:11:28;102786.78;;;11.77;100.00
65190;BME280;51777;53.570;9.984;2023-04-19T08:13:53;102778.81;;;11.67;100.00
65190;BME280;51777;53.570;9.984;2023-04-19T08:16:19;102788.28;;;11.94;100.00
65190;BME280;51777;53.570;9.984;2023-04-19T08:18:44;102780.19;;;12.11;100.00
65190;BME280;51777;53.570;9.984;2023-04-19T08:21:10;102779.88;;;12.28;100.00
65190;BME280;51777;53.570;9.984;2023-04-19T08:23:36;102780.22;;;12.48;100.00
65190;BME280;51777;53.570;9.984;2023-04-19T08:26:01;102793.72;;;12.40;100.00
65190;BME280;51777;53.570;9.984;2023-04-19T08:28:27;102781.84;;;12.61;100.00
65190;BME280;51777;53.570;9.984;2023-04-19T08:30:58;102785.97;;;14.60;100.00
65190;BME280;51777;53.570;9.984;2023-04-19T08:33:23;102798.66;;;16.62;100.00
65190;BME280;51777;53.570;9.984;2023-04-19T08:35:49;102806.94;;;18.66;97.05
65190;BME280;51777;53.570;9.984;2023-04-19T08:38:14;102810.09;;;19.92;94.39
65190;BME280;51777;53.570;9.984;2023-04-19T08:40:51;102817.56;;;22.41;92.45
65190;BME280;51777;53.570;9.984;2023-04-19T08:43:18;102816.16;;;25.12;92.07
65190;BME280;51777;53.570;9.984;2023-04-19T08:45:46;102826.31;;;25.93;88.93
65190;BME280;51777;53.570;9.984;2023-04-19T08:48:13;102826.19;;;27.48;87.78
65190;BME280;51777;53.570;9.984;2023-04-19T08:50:40;102819.47;;;26.92;88.37
65190;BME280;51777;53.570;9.984;2023-04-19T08:53:18;102809.66;;;26.12;87.74
65190;BME280;51777;53.570;9.984;2023-04-19T08:55:44;102804.78;;;24.69;88.77
65190;BME280;51777;53.570;9.984;2023-04-19T08:58:10;102791.16;;;23.85;88.96
65190;BME280;51777;53.570;9.984;2023-04-19T09:00:39;102797.75;;;26.49;88.45
65190;BME280;51777;53.570;9.984;2023-04-19T09:03:06;102808.09;;;28.41;86.40
65190;BME280;51777;53.570;9.984;2023-04-19T09:05:32;102818.41;;;29.92;86.93
65190;BME280;51777;53.570;9.984;2023-04-19T09:08:21;102795.75;;;26.71;86.49
65190;BME280;51777;53.570;9.984;2023-04-19T09:10:59;102790.41;;;25.56;88.03
65190;BME280;51777;53.570;9.984;2023-04-19T09:13:25;102798.13;;;26.40;87.77
65190;BME280;51777;53.570;9.984;2023-04-19T09:15:51;102782.38;;;25.14;88.04
65190;BME280;51777;53.570;9.984;2023-04-19T09:18:18;102786.50;;;26.41;88.37
65190;BME280;51777;53.570;9.984;2023-04-19T09:20:44;102778.63;;;24.81;87.34
65190;BME280;51777;53.570;9.984;2023-04-19T09:23:13;102791.56;;;27.81;86.55
65190;BME280;51777;53.570;9.984;2023-04-19T09:25:39;102796.44;;;29.60;85.95
65190;BME280;51777;53.570;9.984;2023-04-19T09:28:17;102788.53;;;27.58;85.31
65190;BME280;51777;53.570;9.984;2023-04-19T09:30:42;102797.13;;;27.53;85.31
65190;BME280;51777;53.570;9.984;2023-04-19T09:33:08;102785.75;;;27.26;83.86
65190;BME280;51777;53.570;9.984;2023-04-19T09:35:40;102768.31;;;25.76;85.44
65190;BME280;51777;53.570;9.984;2023-04-19T09:38:07;102755.19;;;24.35;86.27
65190;BME280;51777;53.570;9.984;2023-04-19T09:40:33;102757.81;;;25.62;85.60
65190;BME280;51777;53.570;9.984;2023-04-19T09:42:59;102759.38;;;23.64;87.47
65190;BME280;51777;53.570;9.984;2023-04-19T09:45:26;102749.63;;;25.98;85.75
65190;BME280;51777;53.570;9.984;2023-04-19T09:48:03;102747.38;;;25.95;86.16
65190;BME280;51777;53.570;9.984;2023-04-19T09:50:31;102729.81;;;23.90;87.55
65190;BME280;51777;53.570;9.984;2023-04-19T09:52:58;102730.81;;;24.40;86.62
65190;BME280;51777;53.570;9.984;2023-04-19T09:55:24;102733.63;;;22.99;86.60
65190;BME280;51777;53.570;9.984;2023-04-19T09:57:51;102719.03;;;23.70;86.32
65190;BME280;51777;53.570;9.984;2023-04-19T10:00:17;102725.13;;;24.85;85.56
65190;BME280;51777;53.570;9.984;2023-04-19T10:02:43;102725.13;;;25.13;86.03
65190;BME280;51777;53.570;9.984;2023-04-19T10:05:11;102724.78;;;24.10;86.08
65190;BME280;51777;53.570;9.984;2023-04-19T10:07:39;102722.09;;;24.24;85.46
65190;BME280;51777;53.570;9.984;2023-04-19T10:10:06;102730.00;;;25.10;84.62
65190;BME280;51777;53.570;9.984;2023-04-19T10:12:34;102721.31;;;24.45;85.18
65190;BME280;51777;53.570;9.984;2023-04-19T10:15:00;102716.88;;;24.52;85.83
65190;BME280;51777;53.570;9.984;2023-04-19T10:17:26;102702.53;;;24.19;84.93
65190;BME280;51777;53.570;9.984;2023-04-19T10:19:58;102711.69;;;25.50;84.48
65190;BME280;51777;53.570;9.984;2023-04-19T10:22:25;102706.72;;;23.77;84.91
65190;BME280;51777;53.570;9.984;2023-04-19T10:25:11;102701.88;;;23.07;84.75
65190;BME280;51777;53.570;9.984;2023-04-19T10:27:38;102709.88;;;24.23;83.94
65190;BME280;51777;53.570;9.984;2023-04-19T10:30:04;102713.34;;;24.67;83.77
65190;BME280;51777;53.570;9.984;2023-04-19T10:32:42;102702.63;;;23.75;83.61
65190;BME280;51777;53.570;9.984;2023-04-19T10:35:16;102680.38;;;23.54;83.74
65190;BME280;51777;53.570;9.984;2023-04-19T10:38:07;102707.19;;;23.36;83.78
65190;BME280;51777;53.570;9.984;2023-04-19T10:40:55;102684.03;;;22.34;84.58
65190;BME280;51777;53.570;9.984;2023-04-19T10:43:22;102682.88;;;22.51;84.08
65190;BME280;51777;53.570;9.984;2023-04-19T10:45:48;102688.59;;;23.15;84.07
65190;BME280;51777;53.570;9.984;2023-04-19T10:50:57;102671.63;;;21.41;85.44
65190;BME280;51777;53.570;9.984;2023-04-19T10:53:52;102666.09;;;21.03;85.30
65190;BME280;51777;53.570;9.984;2023-04-19T10:56:57;102660.66;;;20.23;85.76
65190;BME280;51777;53.570;9.984;2023-04-19T10:59:29;102659.44;;;21.79;84.26
65190;BME280;51777;53.570;9.984;2023-04-19T11:01:57;102664.38;;;22.36;84.85
65190;BME280;51777;53.570;9.984;2023-04-19T11:09:39;102648.94;;;22.71;83.72
65190;BME280;51777;53.570;9.984;2023-04-19T11:12:13;102641.63;;;20.70;84.38
65190;BME280;51777;53.570;9.984;2023-04-19T11:14:44;102638.66;;;21.53;84.12
65190;BME280;51777;53.570;9.984;2023-04-19T11:19:56;102619.97;;;20.76;84.80
65190;BME280;51777;53.570;9.984;2023-04-19T11:22:38;102634.75;;;20.61;85.34
65190;BME280;51777;53.570;9.984;2023-04-19T11:27:39;102636.31;;;21.11;84.83
65190;BME280;51777;53.570;9.984;2023-04-19T11:30:20;102625.34;;;20.18;85.18
65190;BME280;51777;53.570;9.984;2023-04-19T11:32:53;102637.69;;;20.58;84.85
65190;BME280;51777;53.570;9.984;2023-04-19T11:35:23;102630.16;;;20.55;83.86
65190;BME280;51777;53.570;9.984;2023-04-19T11:37:50;102626.84;;;21.80;84.48
65190;BME280;51777;53.570;9.984;2023-04-19T11:40:33;102631.03;;;21.27;84.09
65190;BME280;51777;53.570;9.984;2023-04-19T11:43:00;102631.00;;;22.66;84.33
65190;BME280;51777;53.570;9.984;2023-04-19T11:45:31;102616.53;;;21.39;83.64
65190;BME280;51777;53.570;9.984;2023-04-19T11:47:57;102614.84;;;20.26;84.55
65190;BME280;51777;53.570;9.984;2023-04-19T11:53:15;102617.41;;;21.07;84.18
65190;BME280;51777;53.570;9.984;2023-04-19T11:55:49;102588.56;;;20.18;84.50
65190;BME280;51777;53.570;9.984;2023-04-19T11:58:32;102603.94;;;19.80;84.38
65190;BME280;51777;53.570;9.984;2023-04-19T12:01:11;102601.06;;;20.16;84.43
65190;BME280;51777;53.570;9.984;2023-04-19T12:03:48;102595.75;;;20.97;84.79
65190;BME280;51777;53.570;9.984;2023-04-19T12:06:14;102608.00;;;22.60;84.24
65190;BME280;51777;53.570;9.984;2023-04-19T12:08:45;102606.59;;;23.02;83.33
65190;BME280;51777;53.570;9.984;2023-04-19T12:11:15;102609.63;;;22.23;83.67
65190;BME280;51777;53.570;9.984;2023-04-19T12:13:41;102610.97;;;23.24;83.09
65190;BME280;51777;53.570;9.984;2023-04-19T12:16:09;102598.63;;;21.35;84.25
65190;BME280;51777;53.570;9.984;2023-04-19T12:18:48;102593.63;;;19.45;85.63
65190;BME280;51777;53.570;9.984;2023-04-19T12:21:28;102588.09;;;20.39;85.26
65190;BME280;51777;53.570;9.984;2023-04-19T12:23:56;102609.09;;;21.43;83.79
65190;BME280;51777;53.570;9.984;2023-04-19T12:26:23;102610.03;;;22.12;83.68
65190;BME280;51777;53.570;9.984;2023-04-19T12:28:48;102608.72;;;21.85;84.23
65190;BME280;51777;53.570;9.984;2023-04-19T12:31:14;102589.75;;;21.20;83.67
65190;BME280;51777;53.570;9.984;2023-04-19T12:33:40;102587.19;;;21.51;83.78
65190;BME280;51777;53.570;9.984;2023-04-19T12:36:06;102587.25;;;22.57;83.57
65190;BME280;51777;53.570;9.984;2023-04-19T12:38:31;102591.00;;;21.48;84.15
65190;BME280;51777;53.570;9.984;2023-04-19T12:40:57;102591.78;;;21.80;83.74
65190;BME280;51777;53.570;9.984;2023-04-19T12:43:23;102584.13;;;21.93;84.46
65190;BME280;51777;53.570;9.984;2023-04-19T12:45:48;102575.78;;;20.23;85.51
65190;BME280;51777;53.570;9.984;2023-04-19T12:48:14;102597.09;;;21.40;84.92
65190;BME280;51777;53.570;9.984;2023-04-19T12:53:17;102575.91;;;21.96;84.49
65190;BME280;51777;53.570;9.984;2023-04-19T12:55:43;102572.44;;;21.95;84.76
65190;BME280;51777;53.570;9.984;2023-04-19T12:58:18;102568.69;;;22.50;84.43
65190;BME280;51777;53.570;9.984;2023-04-19T13:00:45;102589.13;;;23.01;84.23
65190;BME280;51777;53.570;9.984;2023-04-19T13:03:11;102570.19;;;21.61;84.06
65190;BME280;51777;53.570;9.984;2023-04-19T13:05:36;102573.59;;;22.39;84.55
65190;BME280;51777;53.570;9.984;2023-04-19T13:08:02;102571.09;;;23.91;84.17